createdAt,value
2023-05-01T00:01:00.980Z,5.44
2023-05-01T00:02:03.285Z,5.43
2023-05-01T00:03:05.604Z,5.39
2023-05-01T00:04:08.143Z,5.38
2023-05-01T00:05:11.275Z,5.38
2023-05-01T00:06:13.802Z,5.37
2023-05-01T00:07:16.632Z,5.37
2023-05-01T00:08:19.384Z,5.37
2023-05-01T00:09:21.667Z,5.35
2023-05-01T00:10:24.016Z,5.35
2023-05-01T00:11:26.675Z,5.34
2023-05-01T00:12:29.028Z,5.33
2023-05-01T00:13:32.370Z,5.33
2023-05-01T00:14:34.618Z,5.30
2023-05-01T00:15:37.042Z,5.30
2023-05-01T00:16:39.415Z,5.29
2023-05-01T00:17:41.744Z,5.30
2023-05-01T00:18:44.315Z,5.30
2023-05-01T00:19:46.649Z,5.29
2023-05-01T00:20:48.925Z,5.28
2023-05-01T00:21:52.723Z,5.27
2023-05-01T00:22:55.654Z,5.26
2023-05-01T00:23:57.963Z,5.23
2023-05-01T00:25:00.392Z,5.23
2023-05-01T00:26:02.885Z,5.22
2023-05-01T00:27:05.217Z,5.21
2023-05-01T00:28:07.824Z,5.20
2023-05-01T00:29:10.133Z,5.18
2023-05-01T00:30:12.660Z,5.16
2023-05-01T00:31:14.986Z,5.15
2023-05-01T00:32:17.489Z,5.14
2023-05-01T00:33:19.833Z,5.12
2023-05-01T00:34:22.463Z,5.11
2023-05-01T00:35:24.812Z,5.10
2023-05-01T00:36:27.085Z,5.10
2023-05-01T00:37:29.329Z,5.07
2023-05-01T00:38:31.839Z,5.06
2023-05-01T00:39:34.132Z,5.05
2023-05-01T00:40:45.785Z,5.03
2023-05-01T00:41:48.202Z,5.03
2023-05-01T00:42:50.496Z,5.01
2023-05-01T00:43:52.733Z,5.00
2023-05-01T00:44:55.006Z,5.00
2023-05-01T00:45:57.343Z,4.99
2023-05-01T00:47:02.454Z,4.97
2023-05-01T00:48:06.040Z,4.97
2023-05-01T00:49:08.354Z,4.96
2023-05-01T00:50:11.281Z,4.94
2023-05-01T00:51:14.162Z,4.93
2023-05-01T00:52:16.777Z,4.93
2023-05-01T00:53:19.243Z,4.92
2023-05-01T00:54:23.326Z,4.90
2023-05-01T00:55:26.932Z,4.88
2023-05-01T00:56:32.307Z,4.88
2023-05-01T00:57:34.759Z,4.86
2023-05-01T00:58:38.509Z,4.85
2023-05-01T00:59:41.561Z,4.83
2023-05-01T01:00:44.453Z,4.82
2023-05-01T01:01:47.562Z,4.81
2023-05-01T01:02:50.290Z,4.79
2023-05-01T01:03:52.772Z,4.79
2023-05-01T01:04:55.377Z,4.77
2023-05-01T01:06:08.557Z,4.74
2023-05-01T01:07:19.447Z,4.74
2023-05-01T01:08:43.729Z,4.72
2023-05-01T01:09:52.249Z,4.70
2023-05-01T01:11:01.837Z,4.69
2023-05-01T01:12:12.844Z,4.67
2023-05-01T01:13:27.690Z,4.65
2023-05-01T01:14:45.695Z,4.63
2023-05-01T01:15:53.568Z,4.61
2023-05-01T01:17:10.784Z,4.61
2023-05-01T01:18:36.654Z,4.60
2023-05-01T01:19:50.828Z,4.57
2023-05-01T01:21:12.954Z,4.55
2023-05-01T01:22:21.315Z,4.54
2023-05-01T01:24:08.669Z,4.51
2023-05-01T01:25:30.186Z,4.50
2023-05-01T01:27:11.494Z,4.47
2023-05-01T01:28:32.976Z,4.46
2023-05-01T01:29:57.633Z,4.43
2023-05-01T01:31:14.078Z,4.42
2023-05-01T01:33:14.231Z,4.37
2023-05-01T01:34:33.617Z,4.35
2023-05-01T01:35:37.109Z,4.32
2023-05-01T01:36:43.987Z,4.33
2023-05-01T01:38:00.742Z,4.31
2023-05-01T01:39:29.171Z,4.28
2023-05-01T01:40:44.173Z,4.27
2023-05-01T01:41:50.664Z,4.24
2023-05-01T01:43:03.189Z,4.24
2023-05-01T01:44:09.160Z,4.22
2023-05-01T01:45:21.534Z,4.22
2023-05-01T01:46:25.625Z,4.21
2023-05-01T01:47:33.349Z,4.19
2023-05-01T01:48:41.654Z,4.18
2023-05-01T01:49:48.517Z,4.17
2023-05-01T01:50:53.637Z,4.15
2023-05-01T01:51:59.165Z,4.14
2023-05-01T01:53:02.565Z,4.12
2023-05-01T01:54:05.744Z,4.11
2023-05-01T01:55:12.484Z,4.10
2023-05-01T01:56:15.892Z,4.08
2023-05-01T01:57:21.019Z,4.08
2023-05-01T01:58:26.514Z,4.08
2023-05-01T01:59:33.696Z,4.06
2023-05-01T02:00:39.597Z,4.06
2023-05-01T02:01:43.325Z,4.05
2023-05-01T02:02:48.066Z,4.04
2023-05-01T02:03:53.429Z,4.03
2023-05-01T02:04:57.381Z,4.03
2023-05-01T02:06:00.850Z,4.01
2023-05-01T02:07:04.602Z,4.01
2023-05-01T02:08:08.646Z,4.01
2023-05-01T02:09:12.674Z,3.99
2023-05-01T02:10:16.351Z,3.98
2023-05-01T02:11:21.328Z,3.97
2023-05-01T02:12:27.116Z,3.96
2023-05-01T02:13:31.634Z,3.96
2023-05-01T02:14:35.507Z,3.94
2023-05-01T02:15:40.445Z,3.94
2023-05-01T02:16:44.187Z,3.91
2023-05-01T02:17:47.804Z,3.91
2023-05-01T02:18:50.724Z,3.90
2023-05-01T02:19:55.658Z,3.88
2023-05-01T02:20:58.969Z,3.87
2023-05-01T02:22:03.096Z,3.87
2023-05-01T02:23:07.991Z,3.85
2023-05-01T02:24:11.981Z,3.84
2023-05-01T02:25:15.233Z,3.84
2023-05-01T02:26:19.035Z,3.83
2023-05-01T02:27:24.469Z,3.82
2023-05-01T02:28:30.081Z,3.80
2023-05-01T02:29:32.366Z,3.78
2023-05-01T02:30:36.475Z,3.78
2023-05-01T02:31:38.910Z,3.76
2023-05-01T02:32:41.529Z,3.75
2023-05-01T02:33:43.828Z,3.75
2023-05-01T02:34:46.177Z,3.73
2023-05-01T02:35:49.787Z,3.73
2023-05-01T02:36:53.910Z,3.72
2023-05-01T02:37:56.753Z,3.70
2023-05-01T02:39:00.229Z,3.69
2023-05-01T02:40:03.891Z,3.68
2023-05-01T02:41:08.829Z,3.68
2023-05-01T02:42:12.883Z,3.67
2023-05-01T02:43:18.880Z,3.67
2023-05-01T02:44:22.593Z,3.65
2023-05-01T02:45:26.069Z,3.64
2023-05-01T02:46:29.738Z,3.62
2023-05-01T02:47:37.386Z,3.61
2023-05-01T02:48:41.300Z,3.61
2023-05-01T02:49:45.081Z,3.60
2023-05-01T02:50:49.497Z,3.58
2023-05-01T02:51:52.579Z,3.58
2023-05-01T02:52:55.192Z,3.57
2023-05-01T02:54:13.932Z,3.57
2023-05-01T02:55:17.614Z,3.56
2023-05-01T02:56:20.195Z,3.55
2023-05-01T02:57:23.655Z,3.55
2023-05-01T02:58:26.411Z,3.53
2023-05-01T02:59:28.750Z,3.53
2023-05-01T03:00:31.035Z,3.51
2023-05-01T03:01:33.923Z,3.51
2023-05-01T03:02:36.438Z,3.50
2023-05-01T03:03:38.780Z,3.49
2023-05-01T03:04:41.219Z,3.47
2023-05-01T03:05:43.683Z,3.48
2023-05-01T03:06:46.138Z,3.47
2023-05-01T03:07:48.657Z,3.46
2023-05-01T03:08:50.970Z,3.45
2023-05-01T03:09:53.300Z,3.45
2023-05-01T03:10:55.614Z,3.44
2023-05-01T03:11:58.147Z,3.44
2023-05-01T03:13:00.891Z,3.44
2023-05-01T03:14:03.204Z,3.44
2023-05-01T03:15:06.162Z,3.44
2023-05-01T03:16:08.617Z,3.42
2023-05-01T03:17:11.020Z,3.42
2023-05-01T03:18:13.459Z,3.42
2023-05-01T03:19:15.799Z,3.43
2023-05-01T03:20:18.213Z,3.41
2023-05-01T03:21:20.824Z,3.40
2023-05-01T03:22:23.220Z,3.41
2023-05-01T03:23:25.995Z,3.41
2023-05-01T03:24:28.466Z,3.41
2023-05-01T03:25:30.787Z,3.40
2023-05-01T03:26:33.326Z,3.39
2023-05-01T03:27:35.628Z,3.40
2023-05-01T03:28:37.993Z,3.40
2023-05-01T03:29:40.310Z,3.39
2023-05-01T03:30:42.810Z,3.39
2023-05-01T03:31:45.346Z,3.38
2023-05-01T03:32:47.900Z,3.38
2023-05-01T03:33:56.829Z,3.37
2023-05-01T03:34:59.213Z,3.37
2023-05-01T03:36:05.829Z,3.36
2023-05-01T03:37:09.702Z,3.34
2023-05-01T03:38:13.003Z,3.35
2023-05-01T03:39:33.823Z,3.34
2023-05-01T03:40:59.594Z,3.33
2023-05-01T03:42:07.505Z,3.32
2023-05-01T03:43:15.602Z,3.33
2023-05-01T03:44:17.941Z,3.32
2023-05-01T03:45:20.671Z,3.30
2023-05-01T03:46:23.765Z,3.31
2023-05-01T03:47:26.365Z,3.31
2023-05-01T03:48:28.924Z,3.31
2023-05-01T03:49:32.012Z,3.31
2023-05-01T03:50:34.312Z,3.32
2023-05-01T03:51:37.065Z,3.32
2023-05-01T03:52:39.410Z,3.33
2023-05-01T03:53:41.750Z,3.32
2023-05-01T03:54:45.889Z,3.32
2023-05-01T03:56:08.597Z,3.31
2023-05-01T03:57:10.999Z,3.31
2023-05-01T03:58:13.425Z,3.31
2023-05-01T03:59:15.899Z,3.31
2023-05-01T04:00:18.393Z,3.32
2023-05-01T04:01:22.612Z,3.34
2023-05-01T04:02:25.164Z,3.34
2023-05-01T04:03:27.614Z,3.35
2023-05-01T04:04:30.390Z,3.36
2023-05-01T04:05:34.350Z,3.37
2023-05-01T04:06:38.457Z,3.37
2023-05-01T04:07:42.279Z,3.37
2023-05-01T04:08:44.732Z,3.39
2023-05-01T04:09:48.581Z,3.37
2023-05-01T04:10:51.148Z,3.39
2023-05-01T04:11:53.561Z,3.39
2023-05-01T04:12:55.858Z,3.40
2023-05-01T04:13:58.147Z,3.41
2023-05-01T04:15:00.752Z,3.44
2023-05-01T04:16:03.389Z,3.44
2023-05-01T04:17:06.426Z,3.46
2023-05-01T04:18:11.771Z,3.47
2023-05-01T04:19:16.193Z,3.48
2023-05-01T04:20:20.839Z,3.49
2023-05-01T04:21:23.302Z,3.48
2023-05-01T04:22:27.734Z,3.51
2023-05-01T04:23:30.007Z,3.54
2023-05-01T04:24:34.671Z,3.55
2023-05-01T04:25:37.339Z,3.58
2023-05-01T04:26:45.799Z,3.59
2023-05-01T04:27:48.209Z,3.62
2023-05-01T04:28:51.221Z,3.63
2023-05-01T04:29:58.271Z,3.64
2023-05-01T04:31:01.091Z,3.66
2023-05-01T04:32:03.556Z,3.68
2023-05-01T04:33:11.704Z,3.71
2023-05-01T04:34:15.235Z,3.73
2023-05-01T04:35:17.519Z,3.77
2023-05-01T04:36:20.524Z,3.81
2023-05-01T04:37:22.859Z,3.81
2023-05-01T04:38:25.184Z,3.84
2023-05-01T04:39:30.595Z,3.87
2023-05-01T04:40:36.125Z,3.93
2023-05-01T04:41:38.369Z,3.97
2023-05-01T04:42:41.369Z,4.01
2023-05-01T04:43:47.238Z,4.04
2023-05-01T04:44:53.195Z,4.08
2023-05-01T04:45:57.092Z,4.13
2023-05-01T04:46:59.475Z,4.17
2023-05-01T04:48:01.908Z,4.22
2023-05-01T04:49:04.265Z,4.27
2023-05-01T04:50:07.137Z,4.33
2023-05-01T04:51:09.517Z,4.37
2023-05-01T04:52:12.712Z,4.43
2023-05-01T04:53:35.367Z,4.49
2023-05-01T04:54:38.484Z,4.54
2023-05-01T04:55:40.980Z,4.61
2023-05-01T04:56:51.360Z,4.69
2023-05-01T04:57:53.690Z,4.75
2023-05-01T04:58:56.307Z,4.82
2023-05-01T05:00:01.487Z,4.90
2023-05-01T05:01:05.529Z,4.97
2023-05-01T05:02:08.995Z,5.02
2023-05-01T05:03:11.412Z,5.10
2023-05-01T05:04:13.830Z,5.19
2023-05-01T05:05:16.228Z,5.25
2023-05-01T05:06:18.540Z,5.33
2023-05-01T05:07:21.398Z,5.42
2023-05-01T05:08:42.756Z,5.53
2023-05-01T05:09:46.118Z,5.60
2023-05-01T05:10:48.442Z,5.67
2023-05-01T05:12:11.221Z,5.75
2023-05-01T05:13:13.891Z,5.81
2023-05-01T05:14:16.347Z,5.88
2023-05-01T05:15:18.768Z,5.94
2023-05-01T05:16:21.094Z,5.99
2023-05-01T05:17:23.496Z,6.04
2023-05-01T05:18:25.923Z,6.09
2023-05-01T05:19:28.244Z,6.13
2023-05-01T05:20:30.657Z,6.17
2023-05-01T05:21:33.203Z,6.22
2023-05-01T05:22:39.013Z,6.28
2023-05-01T05:23:56.319Z,6.33
2023-05-01T05:25:04.545Z,6.36
2023-05-01T05:26:06.960Z,6.41
2023-05-01T05:27:09.548Z,6.45
2023-05-01T05:28:11.842Z,6.48
2023-05-01T05:29:14.617Z,6.52
2023-05-01T05:30:17.126Z,6.55
2023-05-01T05:31:20.948Z,6.59
2023-05-01T05:32:23.927Z,6.62
2023-05-01T05:33:26.452Z,6.68
2023-05-01T05:34:28.712Z,6.71
2023-05-01T05:35:31.386Z,6.73
2023-05-01T05:36:33.936Z,6.79
2023-05-01T05:37:36.227Z,6.85
2023-05-01T05:38:38.897Z,6.92
2023-05-01T05:39:42.776Z,6.97
2023-05-01T05:40:45.206Z,7.04
2023-05-01T05:41:49.419Z,7.12
2023-05-01T05:42:51.940Z,7.21
2023-05-01T05:43:55.607Z,7.29
2023-05-01T05:44:57.965Z,7.37
2023-05-01T05:46:01.109Z,7.47
2023-05-01T05:47:04.878Z,7.57
2023-05-01T05:48:08.671Z,7.67
2023-05-01T05:49:15.599Z,7.77
2023-05-01T05:50:17.976Z,7.85
2023-05-01T05:51:21.856Z,7.96
2023-05-01T05:52:24.143Z,8.07
2023-05-01T05:53:28.088Z,8.15
2023-05-01T05:54:31.530Z,8.26
2023-05-01T05:55:34.009Z,8.36
2023-05-01T05:56:40.500Z,8.44
2023-05-01T05:57:43.254Z,8.53
2023-05-01T05:58:48.806Z,8.61
2023-05-01T05:59:51.412Z,8.69
2023-05-01T06:00:57.546Z,8.78
2023-05-01T06:02:01.039Z,8.85
2023-05-01T06:03:07.630Z,8.91
2023-05-01T06:04:12.088Z,9.00
2023-05-01T06:05:16.213Z,9.10
2023-05-01T06:06:19.903Z,9.18
2023-05-01T06:07:23.250Z,9.29
2023-05-01T06:08:26.115Z,9.38
2023-05-01T06:09:28.479Z,9.47
2023-05-01T06:10:31.693Z,9.55
2023-05-01T06:11:34.046Z,9.63
2023-05-01T06:12:37.880Z,9.71
2023-05-01T06:13:43.599Z,9.80
2023-05-01T06:14:46.052Z,9.87
2023-05-01T06:15:49.201Z,9.96
2023-05-01T06:16:52.072Z,10.04
2023-05-01T06:17:54.500Z,10.12
2023-05-01T06:18:57.318Z,10.23
2023-05-01T06:20:00.840Z,10.29
2023-05-01T06:21:03.727Z,10.38
2023-05-01T06:22:07.922Z,10.44
2023-05-01T06:23:16.600Z,10.49
2023-05-01T06:24:41.744Z,10.55
2023-05-01T06:25:45.591Z,10.59
2023-05-01T06:26:48.243Z,10.66
2023-05-01T06:27:51.512Z,10.74
2023-05-01T06:28:56.449Z,10.81
2023-05-01T06:29:59.539Z,10.86
2023-05-01T06:31:02.044Z,10.90
2023-05-01T06:32:08.263Z,10.94
2023-05-01T06:33:11.051Z,11.00
2023-05-01T06:34:15.390Z,11.05
2023-05-01T06:35:23.912Z,11.11
2023-05-01T06:36:28.094Z,11.17
2023-05-01T06:37:30.690Z,11.23
2023-05-01T06:38:33.344Z,11.30
2023-05-01T06:39:39.278Z,11.37
2023-05-01T06:40:41.886Z,11.44
2023-05-01T06:41:47.248Z,11.54
2023-05-01T06:42:50.282Z,11.60
2023-05-01T06:43:52.849Z,11.70
2023-05-01T06:44:55.117Z,11.79
2023-05-01T06:45:58.187Z,11.90
2023-05-01T06:47:01.990Z,11.99
2023-05-01T06:48:04.962Z,12.11
2023-05-01T06:49:08.088Z,12.21
2023-05-01T06:50:10.803Z,12.32
2023-05-01T06:51:16.174Z,12.44
2023-05-01T06:52:18.908Z,12.55
2023-05-01T06:53:22.679Z,12.66
2023-05-01T06:54:24.985Z,12.80
2023-05-01T06:55:28.453Z,12.90
2023-05-01T06:56:32.558Z,13.01
2023-05-01T06:57:34.913Z,13.11
2023-05-01T06:58:37.619Z,13.22
2023-05-01T06:59:40.521Z,13.36
2023-05-01T07:00:42.865Z,13.46
2023-05-01T07:01:45.486Z,13.59
2023-05-01T07:02:47.879Z,13.71
2023-05-01T07:03:50.211Z,13.82
2023-05-01T07:04:53.466Z,13.93
2023-05-01T07:05:56.216Z,14.05
2023-05-01T07:06:58.648Z,14.16
2023-05-01T07:08:02.082Z,14.25
2023-05-01T07:09:05.970Z,14.39
2023-05-01T07:10:08.917Z,14.48
2023-05-01T07:11:11.227Z,14.60
2023-05-01T07:12:13.687Z,14.72
2023-05-01T07:13:17.597Z,14.84
2023-05-01T07:14:19.848Z,14.93
2023-05-01T07:15:23.721Z,15.01
2023-05-01T07:16:25.996Z,15.05
2023-05-01T07:17:29.728Z,15.14
2023-05-01T07:18:32.279Z,15.26
2023-05-01T07:19:34.967Z,15.34
2023-05-01T07:20:37.213Z,15.42
2023-05-01T07:21:41.140Z,15.52
2023-05-01T07:22:43.794Z,15.61
2023-05-01T07:23:46.550Z,15.67
2023-05-01T07:24:49.047Z,15.72
2023-05-01T07:25:52.066Z,15.75
2023-05-01T07:26:54.302Z,15.83
2023-05-01T07:27:56.801Z,15.89
2023-05-01T07:28:59.060Z,15.88
2023-05-01T07:30:05.310Z,15.91
2023-05-01T07:31:10.219Z,15.97
2023-05-01T07:32:12.541Z,16.02
2023-05-01T07:33:15.066Z,16.03
2023-05-01T07:34:18.397Z,16.08
2023-05-01T07:35:20.689Z,16.09
2023-05-01T07:36:26.659Z,16.11
2023-05-01T07:37:29.011Z,16.12
2023-05-01T07:38:31.493Z,16.16
2023-05-01T07:39:33.771Z,16.16
2023-05-01T07:40:36.844Z,16.18
2023-05-01T07:41:39.151Z,16.21
2023-05-01T07:42:42.095Z,16.25
2023-05-01T07:43:44.363Z,16.28
2023-05-01T07:44:47.106Z,16.34
2023-05-01T07:46:00.653Z,16.38
2023-05-01T07:47:06.551Z,16.43
2023-05-01T07:48:08.884Z,16.49
2023-05-01T07:49:11.176Z,16.50
2023-05-01T07:50:13.503Z,16.52
2023-05-01T07:51:15.721Z,16.57
2023-05-01T07:52:18.070Z,16.61
2023-05-01T07:53:20.599Z,16.66
2023-05-01T07:54:23.075Z,16.71
2023-05-01T07:55:25.512Z,16.75
2023-05-01T07:56:29.293Z,16.84
2023-05-01T07:57:33.711Z,16.91
2023-05-01T07:58:37.844Z,16.97
2023-05-01T07:59:40.080Z,17.04
2023-05-01T08:00:45.168Z,17.11
2023-05-01T08:01:47.592Z,17.20
2023-05-01T08:02:51.950Z,17.28
2023-05-01T08:03:54.369Z,17.34
2023-05-01T08:04:57.271Z,17.41
2023-05-01T08:05:59.618Z,17.46
2023-05-01T08:07:01.903Z,17.54
2023-05-01T08:08:04.430Z,17.60
2023-05-01T08:09:06.733Z,17.63
2023-05-01T08:10:09.458Z,17.70
2023-05-01T08:11:11.889Z,17.76
2023-05-01T08:12:14.319Z,17.82
2023-05-01T08:13:16.652Z,17.81
2023-05-01T08:14:19.592Z,17.79
2023-05-01T08:15:22.068Z,17.86
2023-05-01T08:16:24.594Z,17.93
2023-05-01T08:17:26.903Z,18.00
2023-05-01T08:18:30.035Z,18.08
2023-05-01T08:19:33.523Z,18.12
2023-05-01T08:20:36.699Z,18.20
2023-05-01T08:21:38.996Z,18.27
2023-05-01T08:22:41.268Z,18.34
2023-05-01T08:23:43.491Z,18.42
2023-05-01T08:24:46.028Z,18.49
2023-05-01T08:25:51.159Z,18.58
2023-05-01T08:26:53.484Z,18.64
2023-05-01T08:27:55.849Z,18.69
2023-05-01T08:28:58.199Z,18.71
2023-05-01T08:30:00.630Z,18.77
2023-05-01T08:31:03.857Z,18.82
2023-05-01T08:32:06.172Z,18.84
2023-05-01T08:33:08.586Z,18.87
2023-05-01T08:34:11.025Z,18.91
2023-05-01T08:35:13.284Z,18.99
2023-05-01T08:36:15.665Z,18.99
2023-05-01T08:37:19.308Z,19.04
2023-05-01T08:38:21.569Z,19.08
2023-05-01T08:39:23.846Z,19.11
2023-05-01T08:40:26.547Z,19.14
2023-05-01T08:41:29.383Z,19.19
2023-05-01T08:42:32.350Z,19.20
2023-05-01T08:43:34.818Z,19.23
2023-05-01T08:44:41.341Z,19.24
2023-05-01T08:45:44.738Z,19.25
2023-05-01T08:46:51.010Z,19.29
2023-05-01T08:47:55.464Z,19.30
2023-05-01T08:48:59.635Z,19.29
2023-05-01T08:50:03.758Z,19.24
2023-05-01T08:51:06.416Z,19.26
2023-05-01T08:52:11.731Z,19.29
2023-05-01T08:53:17.456Z,19.26
2023-05-01T08:54:21.054Z,19.26
2023-05-01T08:55:23.676Z,19.24
2023-05-01T08:56:25.952Z,19.21
2023-05-01T08:57:30.833Z,19.20
2023-05-01T08:58:35.624Z,19.19
2023-05-01T08:59:39.069Z,19.17
2023-05-01T09:00:42.965Z,19.15
2023-05-01T09:01:47.401Z,19.11
2023-05-01T09:02:51.968Z,19.10
2023-05-01T09:03:55.576Z,19.09
2023-05-01T09:05:01.221Z,19.08
2023-05-01T09:06:04.352Z,19.10
2023-05-01T09:07:07.368Z,19.10
2023-05-01T09:08:09.672Z,19.08
2023-05-01T09:09:12.120Z,19.11
2023-05-01T09:10:17.411Z,19.09
2023-05-01T09:11:20.524Z,19.08
2023-05-01T09:12:25.853Z,19.06
2023-05-01T09:13:28.187Z,19.04
2023-05-01T09:14:31.818Z,19.04
2023-05-01T09:15:34.335Z,19.07
2023-05-01T09:16:36.974Z,19.05
2023-05-01T09:17:43.083Z,19.04
2023-05-01T09:18:46.888Z,19.08
2023-05-01T09:19:50.339Z,19.07
2023-05-01T09:20:52.901Z,19.06
2023-05-01T09:21:56.101Z,19.10
2023-05-01T09:22:59.376Z,19.12
2023-05-01T09:24:02.915Z,19.15
2023-05-01T09:25:05.582Z,19.19
2023-05-01T09:26:08.659Z,19.23
2023-05-01T09:27:13.471Z,19.29
2023-05-01T09:28:16.076Z,19.33
2023-05-01T09:29:38.347Z,19.37
2023-05-01T09:30:40.772Z,19.36
2023-05-01T09:31:43.127Z,19.39
2023-05-01T09:32:45.661Z,19.41
2023-05-01T09:33:56.374Z,19.41
2023-05-01T09:35:15.430Z,19.44
2023-05-01T09:36:18.540Z,19.46
2023-05-01T09:37:34.293Z,19.46
2023-05-01T09:38:43.621Z,19.48
2023-05-01T09:39:46.029Z,19.49
2023-05-01T09:40:48.667Z,19.47
2023-05-01T09:41:54.916Z,19.45
2023-05-01T09:42:57.362Z,19.47
2023-05-01T09:43:59.844Z,19.49
2023-05-01T09:45:04.485Z,19.51
2023-05-01T09:46:12.127Z,19.48
2023-05-01T09:47:23.125Z,19.50
2023-05-01T09:48:25.780Z,19.49
2023-05-01T09:49:48.437Z,19.52
2023-05-01T09:50:50.697Z,19.50
2023-05-01T09:51:53.055Z,19.52
2023-05-01T09:52:55.511Z,19.53
2023-05-01T09:53:59.692Z,19.55
2023-05-01T09:55:18.307Z,19.56
2023-05-01T09:56:22.110Z,19.59
2023-05-01T09:57:38.482Z,19.62
2023-05-01T09:58:41.150Z,19.61
2023-05-01T09:59:43.475Z,19.61
2023-05-01T10:00:52.097Z,19.62
2023-05-01T10:01:54.954Z,19.63
2023-05-01T10:02:57.521Z,19.64
2023-05-01T10:04:02.561Z,19.66
2023-05-01T10:05:05.984Z,19.65
2023-05-01T10:06:10.033Z,19.66
2023-05-01T10:07:13.862Z,19.67
2023-05-01T10:08:16.767Z,19.65
2023-05-01T10:09:28.987Z,19.65
2023-05-01T10:10:31.437Z,19.66
2023-05-01T10:11:52.300Z,19.66
2023-05-01T10:12:55.098Z,19.67
2023-05-01T10:14:11.476Z,19.68
2023-05-01T10:15:24.492Z,19.68
2023-05-01T10:16:30.551Z,19.67
2023-05-01T10:17:34.213Z,19.68
2023-05-01T10:18:36.834Z,19.67
2023-05-01T10:19:39.090Z,19.70
2023-05-01T10:20:41.507Z,19.69
2023-05-01T10:21:44.265Z,19.66
2023-05-01T10:22:46.779Z,19.64
2023-05-01T10:23:49.131Z,19.67
2023-05-01T10:24:52.734Z,19.67
2023-05-01T10:25:56.935Z,19.68
2023-05-01T10:27:00.238Z,19.68
2023-05-01T10:28:04.948Z,19.68
2023-05-01T10:29:07.395Z,19.64
2023-05-01T10:30:10.464Z,19.64
2023-05-01T10:31:13.501Z,19.61
2023-05-01T10:32:16.125Z,19.59
2023-05-01T10:33:18.662Z,19.59
2023-05-01T10:34:24.171Z,19.57
2023-05-01T10:35:38.355Z,19.54
2023-05-01T10:36:47.625Z,19.52
2023-05-01T10:37:59.904Z,19.52
2023-05-01T10:39:02.273Z,19.49
2023-05-01T10:40:39.981Z,19.49
2023-05-01T10:42:04.005Z,19.48
2023-05-01T10:43:16.319Z,19.48
2023-05-01T10:44:23.697Z,19.48
2023-05-01T10:45:30.284Z,19.50
2023-05-01T10:46:32.664Z,19.53
2023-05-01T10:47:35.497Z,19.54
2023-05-01T10:48:37.729Z,19.55
2023-05-01T10:50:12.458Z,19.55
2023-05-01T10:51:15.928Z,19.56
2023-05-01T10:52:18.205Z,19.55
2023-05-01T10:53:20.566Z,19.53
2023-05-01T10:54:23.960Z,19.50
2023-05-01T10:55:36.841Z,19.47
2023-05-01T10:56:39.065Z,19.47
2023-05-01T10:57:43.915Z,19.46
2023-05-01T10:58:51.709Z,19.42
2023-05-01T11:00:00.481Z,19.40
2023-05-01T11:01:28.196Z,19.35
2023-05-01T11:02:31.044Z,19.32
2023-05-01T11:03:33.541Z,19.31
2023-05-01T11:04:48.639Z,19.27
2023-05-01T11:06:00.149Z,19.26
2023-05-01T11:07:06.008Z,19.21
2023-05-01T11:08:34.091Z,19.20
2023-05-01T11:09:40.403Z,19.18
2023-05-01T11:11:35.194Z,19.19
2023-05-01T11:12:49.341Z,19.17
2023-05-01T11:14:04.390Z,19.17
2023-05-01T11:15:08.497Z,19.17
2023-05-01T11:16:42.383Z,19.15
2023-05-01T11:17:45.775Z,19.15
2023-05-01T11:18:48.228Z,19.15
2023-05-01T11:19:52.633Z,19.16
2023-05-01T11:20:55.083Z,19.17
2023-05-01T11:21:57.583Z,19.18
2023-05-01T11:22:59.880Z,19.20
2023-05-01T11:24:05.426Z,19.22
2023-05-01T11:25:28.033Z,19.25
2023-05-01T11:26:32.476Z,19.25
2023-05-01T11:27:35.125Z,19.28
2023-05-01T11:28:42.187Z,19.30
2023-05-01T11:29:46.367Z,19.32
2023-05-01T11:30:49.318Z,19.34
2023-05-01T11:31:52.364Z,19.36
2023-05-01T11:32:54.935Z,19.36
2023-05-01T11:33:58.698Z,19.38
2023-05-01T11:35:01.160Z,19.41
2023-05-01T11:36:05.143Z,19.41
2023-05-01T11:37:07.478Z,19.41
2023-05-01T11:38:19.515Z,19.42
2023-05-01T11:39:22.366Z,19.41
2023-05-01T11:40:33.126Z,19.44
2023-05-01T11:41:35.547Z,19.47
2023-05-01T11:42:38.517Z,19.48
2023-05-01T11:43:58.642Z,19.50
2023-05-01T11:45:13.467Z,19.49
2023-05-01T11:46:24.117Z,19.51
2023-05-01T11:47:26.712Z,19.54
2023-05-01T11:48:30.399Z,19.52
2023-05-01T11:49:32.926Z,19.53
2023-05-01T11:50:39.202Z,19.53
2023-05-01T11:51:41.678Z,19.55
2023-05-01T11:52:45.111Z,19.54
2023-05-01T11:54:03.888Z,19.53
2023-05-01T11:55:07.415Z,19.53
2023-05-01T11:57:27.896Z,19.51
2023-05-01T11:58:32.923Z,19.51
2023-05-01T11:59:35.234Z,19.51
2023-05-01T12:00:42.187Z,19.50
2023-05-01T12:01:46.550Z,19.51
2023-05-01T12:03:10.401Z,19.49
2023-05-01T12:04:22.882Z,19.46
2023-05-01T12:05:26.878Z,19.46
2023-05-01T12:06:43.920Z,19.47
2023-05-01T12:07:46.665Z,19.47
2023-05-01T12:08:51.586Z,19.47
2023-05-01T12:09:54.138Z,19.46
2023-05-01T12:10:57.567Z,19.47
2023-05-01T12:12:03.999Z,19.48
2023-05-01T12:13:08.697Z,19.49
2023-05-01T12:14:14.194Z,19.50
2023-05-01T12:15:22.730Z,19.48
2023-05-01T12:16:27.894Z,19.46
2023-05-01T12:17:31.071Z,19.47
2023-05-01T12:18:33.689Z,19.48
2023-05-01T12:19:48.957Z,19.50
2023-05-01T12:20:53.326Z,19.46
2023-05-01T12:22:11.104Z,19.46
2023-05-01T12:23:18.652Z,19.43
2023-05-01T12:24:21.200Z,19.47
2023-05-01T12:25:30.366Z,19.47
2023-05-01T12:26:32.829Z,19.46
2023-05-01T12:27:43.668Z,19.45
2023-05-01T12:29:04.422Z,19.44
2023-05-01T12:30:07.652Z,19.43
2023-05-01T12:31:11.056Z,19.43
2023-05-01T12:32:17.436Z,19.43
2023-05-01T12:33:21.375Z,19.44
2023-05-01T12:34:31.951Z,19.43
2023-05-01T12:35:34.723Z,19.42
2023-05-01T12:36:37.740Z,19.42
2023-05-01T12:37:40.245Z,19.42
2023-05-01T12:39:03.109Z,19.41
2023-05-01T12:40:06.493Z,19.39
2023-05-01T12:41:11.939Z,19.34
2023-05-01T12:42:15.604Z,19.34
2023-05-01T12:43:20.025Z,19.32
2023-05-01T12:44:27.595Z,19.33
2023-05-01T12:45:30.106Z,19.34
2023-05-01T12:46:32.595Z,19.35
2023-05-01T12:47:40.737Z,19.34
2023-05-01T12:48:43.229Z,19.37
2023-05-01T12:49:45.862Z,19.37
2023-05-01T12:50:54.766Z,19.36
2023-05-01T12:51:59.504Z,19.39
2023-05-01T12:53:03.334Z,19.40
2023-05-01T12:54:05.853Z,19.40
2023-05-01T12:55:09.284Z,19.43
2023-05-01T12:56:23.831Z,19.43
2023-05-01T12:57:26.912Z,19.44
2023-05-01T12:58:38.890Z,19.44
2023-05-01T12:59:43.671Z,19.44
2023-05-01T13:00:56.091Z,19.43
2023-05-01T13:02:04.329Z,19.44
2023-05-01T13:03:06.953Z,19.44
2023-05-01T13:04:12.107Z,19.43
2023-05-01T13:05:14.533Z,19.43
2023-05-01T13:06:17.159Z,19.45
2023-05-01T13:07:19.826Z,19.45
2023-05-01T13:08:36.683Z,19.45
2023-05-01T13:09:42.091Z,19.42
2023-05-01T13:10:44.834Z,19.40
2023-05-01T13:11:57.028Z,19.41
2023-05-01T13:12:59.559Z,19.39
2023-05-01T13:14:09.123Z,19.39
2023-05-01T13:15:22.084Z,19.38
2023-05-01T13:16:25.353Z,19.38
2023-05-01T13:17:33.084Z,19.35
2023-05-01T13:18:52.547Z,19.36
2023-05-01T13:20:09.175Z,19.34
2023-05-01T13:21:14.848Z,19.33
2023-05-01T13:22:17.367Z,19.31
2023-05-01T13:23:20.855Z,19.31
2023-05-01T13:24:24.087Z,19.31
2023-05-01T13:25:26.964Z,19.31
2023-05-01T13:26:35.416Z,19.30
2023-05-01T13:27:37.952Z,19.31
2023-05-01T13:28:48.694Z,19.31
2023-05-01T13:29:59.957Z,19.32
2023-05-01T13:31:02.876Z,19.33
2023-05-01T13:32:06.546Z,19.34
2023-05-01T13:33:11.142Z,19.34
2023-05-01T13:34:21.702Z,19.33
2023-05-01T13:35:25.851Z,19.32
2023-05-01T13:36:33.461Z,19.32
2023-05-01T13:37:36.610Z,19.33
2023-05-01T13:38:47.366Z,19.35
2023-05-01T13:39:49.896Z,19.34
2023-05-01T13:40:52.290Z,19.36
2023-05-01T13:41:54.756Z,19.36
2023-05-01T13:42:57.386Z,19.36
2023-05-01T13:43:59.731Z,19.36
2023-05-01T13:45:05.909Z,19.36
2023-05-01T13:46:10.048Z,19.35
2023-05-01T13:47:17.786Z,19.35
2023-05-01T13:48:26.446Z,19.33
2023-05-01T13:49:28.867Z,19.32
2023-05-01T13:50:32.245Z,19.31
2023-05-01T13:51:38.041Z,19.29
2023-05-01T13:52:44.393Z,19.25
2023-05-01T13:53:47.029Z,19.25
2023-05-01T13:54:49.833Z,19.24
2023-05-01T13:55:52.261Z,19.26
2023-05-01T13:56:54.859Z,19.26
2023-05-01T13:57:57.634Z,19.26
2023-05-01T13:59:00.880Z,19.26
2023-05-01T14:00:05.432Z,19.26
2023-05-01T14:01:17.299Z,19.27
2023-05-01T14:02:27.757Z,19.28
2023-05-01T14:03:42.738Z,19.30
2023-05-01T14:04:45.211Z,19.29
2023-05-01T14:05:48.172Z,19.30
2023-05-01T14:06:52.267Z,19.31
2023-05-01T14:07:57.144Z,19.33
2023-05-01T14:09:00.673Z,19.31
2023-05-01T14:10:03.909Z,19.31
2023-05-01T14:11:08.068Z,19.31
2023-05-01T14:12:10.739Z,19.32
2023-05-01T14:13:17.088Z,19.32
2023-05-01T14:14:19.995Z,19.30
2023-05-01T14:15:24.572Z,19.30